sensor_id;sensor_type;location;lat;lon;timestamp;pressure;altitude;pressure_sealevel;temperature;humidity
62942;BME280;49042;47.318;19.874;2023-02-15T00:01:21;102154.53;;;-2.72;100.00
62942;BME280;49042;47.318;19.874;2023-02-15T00:04:24;102158.34;;;-2.69;100.00
62942;BME280;49042;47.318;19.874;2023-02-15T00:07:46;102158.50;;;-2.12;100.00
62942;BME280;49042;47.318;19.874;2023-02-15T00:10:48;102150.56;;;-2.07;100.00
62942;BME280;49042;47.318;19.874;2023-02-15T00:13:49;102152.19;;;-1.84;100.00
62942;BME280;49042;47.318;19.874;2023-02-15T00:16:52;102152.81;;;-2.33;100.00
62942;BME280;49042;47.318;19.874;2023-02-15T00:19:54;102166.66;;;-2.31;100.00
62942;BME280;49042;47.318;19.874;2023-02-15T00:22:56;102164.38;;;-2.21;100.00
62942;BME280;49042;47.318;19.874;2023-02-15T00:26:09;102171.44;;;-2.11;100.00
62942;BME280;49042;47.318;19.874;2023-02-15T00:29:12;102159.88;;;-2.07;100.00
62942;BME280;49042;47.318;19.874;2023-02-15T00:32:14;102172.56;;;-1.92;100.00
62942;BME280;49042;47.318;19.874;2023-02-15T00:35:15;102163.00;;;-1.86;100.00
62942;BME280;49042;47.318;19.874;2023-02-15T00:38:17;102158.59;;;-2.03;100.00
62942;BME280;49042;47.318;19.874;2023-02-15T00:41:19;102155.22;;;-2.19;100.00
62942;BME280;49042;47.318;19.874;2023-02-15T00:44:20;102154.97;;;-2.06;100.00
62942;BME280;49042;47.318;19.874;2023-02-15T00:47:22;102151.16;;;-2.09;100.00
62942;BME280;49042;47.318;19.874;2023-02-15T00:50:25;102155.50;;;-1.85;100.00
62942;BME280;49042;47.318;19.874;2023-02-15T00:53:28;102154.91;;;-1.82;100.00
62942;BME280;49042;47.318;19.874;2023-02-15T00:56:29;102155.56;;;-2.39;100.00
62942;BME280;49042;47.318;19.874;2023-02-15T00:59:31;102157.16;;;-2.56;100.00
62942;BME280;49042;47.318;19.874;2023-02-15T01:02:33;102152.41;;;-2.84;100.00
62942;BME280;49042;47.318;19.874;2023-02-15T01:05:34;102153.81;;;-2.48;100.00
62942;BME280;49042;47.318;19.874;2023-02-15T01:08:36;102157.12;;;-2.25;100.00
62942;BME280;49042;47.318;19.874;2023-02-15T01:11:38;102150.47;;;-2.16;100.00
62942;BME280;49042;47.318;19.874;2023-02-15T01:14:40;102149.63;;;-2.23;100.00
62942;BME280;49042;47.318;19.874;2023-02-15T01:17:42;102149.97;;;-3.13;100.00
62942;BME280;49042;47.318;19.874;2023-02-15T01:20:47;102153.75;;;-3.55;100.00
62942;BME280;49042;47.318;19.874;2023-02-15T01:23:49;102154.91;;;-3.68;100.00
62942;BME280;49042;47.318;19.874;2023-02-15T01:26:50;102145.63;;;-3.22;100.00
62942;BME280;49042;47.318;19.874;2023-02-15T01:29:52;102145.03;;;-3.57;100.00
62942;BME280;49042;47.318;19.874;2023-02-15T01:32:54;102142.53;;;-3.94;100.00
62942;BME280;49042;47.318;19.874;2023-02-15T01:35:58;102144.38;;;-4.00;100.00
62942;BME280;49042;47.318;19.874;2023-02-15T01:39:01;102137.63;;;-4.00;100.00
62942;BME280;49042;47.318;19.874;2023-02-15T01:42:03;102133.97;;;-4.02;100.00
62942;BME280;49042;47.318;19.874;2023-02-15T01:45:31;102140.91;;;-4.08;100.00
62942;BME280;49042;47.318;19.874;2023-02-15T01:48:33;102132.19;;;-4.17;100.00
62942;BME280;49042;47.318;19.874;2023-02-15T01:51:37;102133.47;;;-4.06;100.00
62942;BME280;49042;47.318;19.874;2023-02-15T01:54:40;102124.53;;;-4.03;100.00
62942;BME280;49042;47.318;19.874;2023-02-15T01:57:43;102134.72;;;-4.03;100.00
62942;BME280;49042;47.318;19.874;2023-02-15T02:00:46;102134.72;;;-4.10;100.00
62942;BME280;49042;47.318;19.874;2023-02-15T02:07:06;102123.41;;;-3.98;100.00
62942;BME280;49042;47.318;19.874;2023-02-15T02:10:13;102122.69;;;-3.96;100.00
62942;BME280;49042;47.318;19.874;2023-02-15T02:13:15;102121.03;;;-3.89;100.00
62942;BME280;49042;47.318;19.874;2023-02-15T02:16:48;102117.19;;;-3.78;100.00
62942;BME280;49042;47.318;19.874;2023-02-15T02:20:16;102115.69;;;-3.53;100.00
62942;BME280;49042;47.318;19.874;2023-02-15T02:36:31;102116.53;;;-4.21;100.00
62942;BME280;49042;47.318;19.874;2023-02-15T02:50:27;102119.25;;;-4.19;100.00
62942;BME280;49042;47.318;19.874;2023-02-15T02:53:31;102122.91;;;-4.17;100.00
62942;BME280;49042;47.318;19.874;2023-02-15T02:56:46;102124.19;;;-4.21;100.00
62942;BME280;49042;47.318;19.874;2023-02-15T02:59:50;102119.59;;;-4.16;100.00
62942;BME280;49042;47.318;19.874;2023-02-15T03:03:03;102128.72;;;-3.96;100.00
62942;BME280;49042;47.318;19.874;2023-02-15T03:06:16;102130.16;;;-3.98;100.00
62942;BME280;49042;47.318;19.874;2023-02-15T03:09:26;102129.25;;;-4.06;100.00
62942;BME280;49042;47.318;19.874;2023-02-15T03:12:43;102129.78;;;-4.01;100.00
62942;BME280;49042;47.318;19.874;2023-02-15T03:15:46;102127.44;;;-4.14;100.00
62942;BME280;49042;47.318;19.874;2023-02-15T03:19:10;102132.53;;;-4.14;100.00
62942;BME280;49042;47.318;19.874;2023-02-15T03:22:30;102132.34;;;-4.23;100.00
62942;BME280;49042;47.318;19.874;2023-02-15T03:25:42;102138.00;;;-4.26;100.00
62942;BME280;49042;47.318;19.874;2023-02-15T03:28:46;102133.09;;;-4.39;100.00
62942;BME280;49042;47.318;19.874;2023-02-15T03:31:55;102132.69;;;-4.27;100.00
62942;BME280;49042;47.318;19.874;2023-02-15T03:34:58;102132.53;;;-4.36;100.00
62942;BME280;49042;47.318;19.874;2023-02-15T03:38:01;102134.16;;;-4.37;100.00
62942;BME280;49042;47.318;19.874;2023-02-15T03:41:07;102135.81;;;-4.15;100.00
62942;BME280;49042;47.318;19.874;2023-02-15T03:44:23;102140.38;;;-4.42;100.00
62942;BME280;49042;47.318;19.874;2023-02-15T03:47:32;102140.16;;;-4.44;100.00
62942;BME280;49042;47.318;19.874;2023-02-15T03:50:37;102131.81;;;-4.43;100.00
62942;BME280;49042;47.318;19.874;2023-02-15T03:53:59;102134.50;;;-4.48;100.00
62942;BME280;49042;47.318;19.874;2023-02-15T03:57:02;102138.00;;;-3.96;100.00
62942;BME280;49042;47.318;19.874;2023-02-15T04:00:24;102141.09;;;-4.14;100.00
62942;BME280;49042;47.318;19.874;2023-02-15T04:06:52;102139.44;;;-4.43;100.00
62942;BME280;49042;47.318;19.874;2023-02-15T04:09:54;102140.38;;;-4.42;100.00
62942;BME280;49042;47.318;19.874;2023-02-15T04:13:14;102138.91;;;-3.96;100.00
62942;BME280;49042;47.318;19.874;2023-02-15T04:16:15;102144.34;;;-3.78;100.00
62942;BME280;49042;47.318;19.874;2023-02-15T04:19:17;102142.31;;;-3.66;100.00
62942;BME280;49042;47.318;19.874;2023-02-15T04:22:38;102146.50;;;-3.89;100.00
62942;BME280;49042;47.318;19.874;2023-02-15T04:25:58;102140.91;;;-4.01;100.00
62942;BME280;49042;47.318;19.874;2023-02-15T04:29:00;102141.44;;;-4.47;100.00
62942;BME280;49042;47.318;19.874;2023-02-15T04:32:02;102147.28;;;-4.26;100.00
62942;BME280;49042;47.318;19.874;2023-02-15T04:35:05;102144.38;;;-4.15;100.00
62942;BME280;49042;47.318;19.874;2023-02-15T04:38:07;102145.28;;;-4.07;100.00
62942;BME280;49042;47.318;19.874;2023-02-15T04:41:08;102144.88;;;-3.95;100.00
62942;BME280;49042;47.318;19.874;2023-02-15T04:44:12;102143.06;;;-4.48;100.00
62942;BME280;49042;47.318;19.874;2023-02-15T04:47:13;102141.22;;;-4.78;100.00
62942;BME280;49042;47.318;19.874;2023-02-15T04:50:15;102148.09;;;-4.92;100.00
62942;BME280;49042;47.318;19.874;2023-02-15T04:53:17;102147.34;;;-4.98;100.00
62942;BME280;49042;47.318;19.874;2023-02-15T04:56:20;102147.31;;;-5.06;100.00
62942;BME280;49042;47.318;19.874;2023-02-15T04:59:22;102149.28;;;-5.10;100.00
62942;BME280;49042;47.318;19.874;2023-02-15T05:02:23;102149.88;;;-5.06;100.00
62942;BME280;49042;47.318;19.874;2023-02-15T05:05:25;102145.84;;;-5.03;100.00
62942;BME280;49042;47.318;19.874;2023-02-15T05:08:27;102141.66;;;-5.10;100.00
62942;BME280;49042;47.318;19.874;2023-02-15T05:11:29;102158.47;;;-4.83;100.00
62942;BME280;49042;47.318;19.874;2023-02-15T05:14:30;102152.56;;;-4.32;100.00
62942;BME280;49042;47.318;19.874;2023-02-15T05:17:32;102155.03;;;-4.76;100.00
62942;BME280;49042;47.318;19.874;2023-02-15T05:20:34;102165.91;;;-4.92;100.00
62942;BME280;49042;47.318;19.874;2023-02-15T05:23:36;102168.75;;;-4.39;100.00
62942;BME280;49042;47.318;19.874;2023-02-15T05:26:38;102162.00;;;-4.16;100.00
62942;BME280;49042;47.318;19.874;2023-02-15T05:29:58;102168.75;;;-3.95;100.00
62942;BME280;49042;47.318;19.874;2023-02-15T05:33:00;102166.75;;;-3.83;100.00
62942;BME280;49042;47.318;19.874;2023-02-15T05:36:02;102170.38;;;-3.81;100.00
62942;BME280;49042;47.318;19.874;2023-02-15T05:39:05;102172.94;;;-3.88;100.00
62942;BME280;49042;47.318;19.874;2023-02-15T05:42:07;102168.19;;;-3.78;100.00
62942;BME280;49042;47.318;19.874;2023-02-15T05:45:09;102172.41;;;-4.00;100.00
62942;BME280;49042;47.318;19.874;2023-02-15T05:48:11;102169.28;;;-4.34;100.00
62942;BME280;49042;47.318;19.874;2023-02-15T05:51:13;102180.22;;;-3.84;100.00
62942;BME280;49042;47.318;19.874;2023-02-15T05:54:16;102181.12;;;-3.76;100.00
62942;BME280;49042;47.318;19.874;2023-02-15T05:57:18;102188.56;;;-4.44;100.00
62942;BME280;49042;47.318;19.874;2023-02-15T06:00:19;102194.06;;;-4.26;100.00
62942;BME280;49042;47.318;19.874;2023-02-15T06:03:22;102188.41;;;-3.79;100.00
62942;BME280;49042;47.318;19.874;2023-02-15T06:06:24;102202.25;;;-3.62;100.00
62942;BME280;49042;47.318;19.874;2023-02-15T06:09:26;102206.19;;;-3.35;100.00
62942;BME280;49042;47.318;19.874;2023-02-15T06:12:28;102203.31;;;-3.53;100.00
62942;BME280;49042;47.318;19.874;2023-02-15T06:15:30;102199.31;;;-2.91;100.00
62942;BME280;49042;47.318;19.874;2023-02-15T06:18:31;102207.00;;;-2.98;100.00
62942;BME280;49042;47.318;19.874;2023-02-15T06:21:33;102200.69;;;-2.78;100.00
62942;BME280;49042;47.318;19.874;2023-02-15T06:24:35;102203.44;;;-1.35;95.51
62942;BME280;49042;47.318;19.874;2023-02-15T06:27:37;102204.03;;;-0.38;86.89
62942;BME280;49042;47.318;19.874;2023-02-15T06:30:39;102209.19;;;1.09;78.36
62942;BME280;49042;47.318;19.874;2023-02-15T06:33:41;102211.16;;;1.93;71.60
62942;BME280;49042;47.318;19.874;2023-02-15T06:36:42;102200.69;;;2.85;66.03
62942;BME280;49042;47.318;19.874;2023-02-15T06:39:44;102206.34;;;4.41;59.23
62942;BME280;49042;47.318;19.874;2023-02-15T06:42:46;102195.38;;;3.93;57.57
62942;BME280;49042;47.318;19.874;2023-02-15T06:45:48;102202.91;;;1.69;67.72
62942;BME280;49042;47.318;19.874;2023-02-15T06:48:49;102202.97;;;1.24;72.84
62942;BME280;49042;47.318;19.874;2023-02-15T06:51:51;102203.56;;;1.39;72.43
62942;BME280;49042;47.318;19.874;2023-02-15T06:54:53;102205.97;;;0.76;75.87
62942;BME280;49042;47.318;19.874;2023-02-15T06:57:54;102217.56;;;-0.23;82.90
62942;BME280;49042;47.318;19.874;2023-02-15T07:00:56;102213.66;;;-1.51;92.83
62942;BME280;49042;47.318;19.874;2023-02-15T07:03:58;102218.97;;;-1.73;97.12
62942;BME280;49042;47.318;19.874;2023-02-15T07:07:00;102213.37;;;-1.78;99.42
62942;BME280;49042;47.318;19.874;2023-02-15T07:10:02;102206.53;;;-1.94;100.00
62942;BME280;49042;47.318;19.874;2023-02-15T07:13:04;102208.94;;;-1.95;100.00
62942;BME280;49042;47.318;19.874;2023-02-15T07:16:06;102208.31;;;-1.85;100.00
62942;BME280;49042;47.318;19.874;2023-02-15T07:19:07;102213.13;;;-1.72;100.00
62942;BME280;49042;47.318;19.874;2023-02-15T07:22:09;102221.44;;;-1.42;100.00
62942;BME280;49042;47.318;19.874;2023-02-15T07:25:12;102213.16;;;-1.23;100.00
62942;BME280;49042;47.318;19.874;2023-02-15T07:28:13;102222.59;;;-1.15;100.00
62942;BME280;49042;47.318;19.874;2023-02-15T07:31:17;102212.72;;;-0.70;100.00
62942;BME280;49042;47.318;19.874;2023-02-15T07:34:19;102211.69;;;-0.47;100.00
62942;BME280;49042;47.318;19.874;2023-02-15T07:37:21;102216.81;;;-0.22;100.00
62942;BME280;49042;47.318;19.874;2023-02-15T07:40:22;102211.50;;;0.45;100.00
62942;BME280;49042;47.318;19.874;2023-02-15T07:43:25;102212.25;;;4.30;82.10
62942;BME280;49042;47.318;19.874;2023-02-15T07:46:26;102203.69;;;8.05;57.42
62942;BME280;49042;47.318;19.874;2023-02-15T07:49:29;102200.81;;;11.22;45.77
62942;BME280;49042;47.318;19.874;2023-02-15T07:52:31;102203.03;;;13.54;39.12
62942;BME280;49042;47.318;19.874;2023-02-15T07:55:32;102198.84;;;15.91;33.81
62942;BME280;49042;47.318;19.874;2023-02-15T07:58:34;102186.31;;;18.01;30.41
62942;BME280;49042;47.318;19.874;2023-02-15T08:01:54;102189.84;;;19.86;27.09
62942;BME280;49042;47.318;19.874;2023-02-15T08:04:57;102184.09;;;21.09;24.97
62942;BME280;49042;47.318;19.874;2023-02-15T08:07:59;102178.53;;;22.35;23.82
62942;BME280;49042;47.318;19.874;2023-02-15T08:11:01;102175.25;;;22.65;23.06
62942;BME280;49042;47.318;19.874;2023-02-15T08:14:22;102177.72;;;25.37;20.04
62942;BME280;49042;47.318;19.874;2023-02-15T08:17:24;102166.78;;;23.27;21.57
62942;BME280;49042;47.318;19.874;2023-02-15T08:20:26;102168.13;;;19.60;26.42
62942;BME280;49042;47.318;19.874;2023-02-15T08:23:28;102171.56;;;15.41;32.56
62942;BME280;49042;47.318;19.874;2023-02-15T08:26:30;102172.97;;;12.20;39.35
62942;BME280;49042;47.318;19.874;2023-02-15T08:29:33;102172.28;;;11.10;42.61
62942;BME280;49042;47.318;19.874;2023-02-15T08:32:35;102182.47;;;9.03;50.88
62942;BME280;49042;47.318;19.874;2023-02-15T08:35:36;102186.78;;;7.12;60.01
62942;BME280;49042;47.318;19.874;2023-02-15T08:38:38;102174.81;;;6.90;62.60
62942;BME280;49042;47.318;19.874;2023-02-15T08:41:45;102176.97;;;5.70;70.71
62942;BME280;49042;47.318;19.874;2023-02-15T08:44:47;102172.47;;;6.35;67.65
62942;BME280;49042;47.318;19.874;2023-02-15T08:47:52;102166.81;;;6.28;68.67
62942;BME280;49042;47.318;19.874;2023-02-15T08:50:54;102169.56;;;5.19;75.20
62942;BME280;49042;47.318;19.874;2023-02-15T08:53:57;102150.84;;;8.83;58.53
62942;BME280;49042;47.318;19.874;2023-02-15T08:57:00;102155.31;;;12.86;43.75
62942;BME280;49042;47.318;19.874;2023-02-15T09:00:01;102143.06;;;15.52;36.66
62942;BME280;49042;47.318;19.874;2023-02-15T09:03:06;102157.50;;;16.36;34.39
62942;BME280;49042;47.318;19.874;2023-02-15T09:06:07;102145.91;;;18.72;30.83
62942;BME280;49042;47.318;19.874;2023-02-15T09:09:10;102136.72;;;16.99;32.14
62942;BME280;49042;47.318;19.874;2023-02-15T09:12:12;102145.94;;;19.12;29.52
62942;BME280;49042;47.318;19.874;2023-02-15T09:15:14;102146.28;;;18.52;29.26
62942;BME280;49042;47.318;19.874;2023-02-15T09:18:16;102139.78;;;20.47;26.97
62942;BME280;49042;47.318;19.874;2023-02-15T09:21:20;102140.31;;;19.37;28.70
62942;BME280;49042;47.318;19.874;2023-02-15T09:24:23;102144.56;;;18.90;29.25
62942;BME280;49042;47.318;19.874;2023-02-15T09:27:24;102141.69;;;19.60;28.03
62942;BME280;49042;47.318;19.874;2023-02-15T09:30:26;102145.63;;;20.27;27.11
62942;BME280;49042;47.318;19.874;2023-02-15T09:33:28;102137.41;;;23.11;24.15
62942;BME280;49042;47.318;19.874;2023-02-15T09:36:34;102140.69;;;22.73;23.74
62942;BME280;49042;47.318;19.874;2023-02-15T09:39:39;102136.88;;;23.88;22.52
62942;BME280;49042;47.318;19.874;2023-02-15T09:43:09;102134.25;;;24.35;22.30
62942;BME280;49042;47.318;19.874;2023-02-15T09:56:52;102125.34;;;20.85;25.83
62942;BME280;49042;47.318;19.874;2023-02-15T10:00:06;102117.63;;;19.08;28.10
62942;BME280;49042;47.318;19.874;2023-02-15T10:16:50;102122.56;;;9.44;48.98
62942;BME280;49042;47.318;19.874;2023-02-15T10:20:35;102114.19;;;9.63;48.97
62942;BME280;49042;47.318;19.874;2023-02-15T10:23:50;102117.22;;;8.73;51.22
62942;BME280;49042;47.318;19.874;2023-02-15T10:27:03;102118.22;;;8.88;51.31
62942;BME280;49042;47.318;19.874;2023-02-15T10:30:11;102113.16;;;7.86;56.70
62942;BME280;49042;47.318;19.874;2023-02-15T10:43:03;102105.84;;;7.80;58.83
62942;BME280;49042;47.318;19.874;2023-02-15T10:56:48;102096.91;;;6.77;64.75
62942;BME280;49042;47.318;19.874;2023-02-15T11:03:33;102089.53;;;7.19;62.97
62942;BME280;49042;47.318;19.874;2023-02-15T11:06:39;102092.22;;;7.33;61.92
62942;BME280;49042;47.318;19.874;2023-02-15T11:09:54;102086.31;;;7.47;61.56
62942;BME280;49042;47.318;19.874;2023-02-15T11:13:05;102091.37;;;7.46;61.65
62942;BME280;49042;47.318;19.874;2023-02-15T11:16:14;102084.25;;;7.55;62.07
62942;BME280;49042;47.318;19.874;2023-02-15T11:19:22;102085.38;;;6.97;64.80
62942;BME280;49042;47.318;19.874;2023-02-15T11:22:25;102081.25;;;7.37;64.55
62942;BME280;49042;47.318;19.874;2023-02-15T11:25:32;102071.16;;;7.54;62.75
62942;BME280;49042;47.318;19.874;2023-02-15T11:28:40;102070.00;;;7.62;62.20
62942;BME280;49042;47.318;19.874;2023-02-15T11:31:50;102066.59;;;8.14;60.66
62942;BME280;49042;47.318;19.874;2023-02-15T11:38:12;102054.63;;;7.91;60.30
62942;BME280;49042;47.318;19.874;2023-02-15T11:41:19;102044.75;;;7.99;61.47
62942;BME280;49042;47.318;19.874;2023-02-15T11:44:27;102046.69;;;7.76;60.99
62942;BME280;49042;47.318;19.874;2023-02-15T11:47:33;102034.41;;;8.12;59.01
62942;BME280;49042;47.318;19.874;2023-02-15T11:50:36;102042.06;;;8.77;57.23
62942;BME280;49042;47.318;19.874;2023-02-15T11:53:38;102025.56;;;9.19;54.93
62942;BME280;49042;47.318;19.874;2023-02-15T11:56:40;102026.13;;;8.45;58.37
62942;BME280;49042;47.318;19.874;2023-02-15T11:59:47;102019.87;;;8.69;56.60
62942;BME280;49042;47.318;19.874;2023-02-15T12:02:53;102016.78;;;8.08;59.77
62942;BME280;49042;47.318;19.874;2023-02-15T12:06:01;102012.19;;;8.18;59.06
62942;BME280;49042;47.318;19.874;2023-02-15T12:09:10;102008.78;;;8.05;60.50
62942;BME280;49042;47.318;19.874;2023-02-15T12:12:28;102004.91;;;8.12;58.83
62942;BME280;49042;47.318;19.874;2023-02-15T12:15:31;101997.72;;;8.21;59.32
62942;BME280;49042;47.318;19.874;2023-02-15T12:18:40;101992.87;;;8.00;60.71
62942;BME280;49042;47.318;19.874;2023-02-15T12:21:43;101993.28;;;8.07;61.68
62942;BME280;49042;47.318;19.874;2023-02-15T12:24:46;101990.63;;;8.32;59.17
62942;BME280;49042;47.318;19.874;2023-02-15T12:27:49;101987.09;;;8.59;58.14
62942;BME280;49042;47.318;19.874;2023-02-15T12:30:52;101983.03;;;8.35;58.00
62942;BME280;49042;47.318;19.874;2023-02-15T12:33:57;101982.81;;;8.46;57.01
62942;BME280;49042;47.318;19.874;2023-02-15T12:37:09;101981.50;;;8.53;56.32
62942;BME280;49042;47.318;19.874;2023-02-15T12:40:27;101975.81;;;8.59;56.24
62942;BME280;49042;47.318;19.874;2023-02-15T12:43:37;101971.94;;;8.65;55.68
62942;BME280;49042;47.318;19.874;2023-02-15T12:46:39;101960.62;;;8.78;55.56
62942;BME280;49042;47.318;19.874;2023-02-15T12:49:41;101959.19;;;8.97;55.01
62942;BME280;49042;47.318;19.874;2023-02-15T12:52:50;101959.28;;;8.85;54.69
62942;BME280;49042;47.318;19.874;2023-02-15T12:55:57;101959.19;;;8.97;54.96
62942;BME280;49042;47.318;19.874;2023-02-15T12:59:05;101952.28;;;8.84;54.95
62942;BME280;49042;47.318;19.874;2023-02-15T13:02:18;101950.88;;;8.89;53.97
62942;BME280;49042;47.318;19.874;2023-02-15T13:08:47;101950.91;;;8.76;55.39
62942;BME280;49042;47.318;19.874;2023-02-15T13:11:49;101940.91;;;9.11;54.13
62942;BME280;49042;47.318;19.874;2023-02-15T13:14:52;101936.69;;;9.13;53.87
62942;BME280;49042;47.318;19.874;2023-02-15T13:17:57;101931.00;;;9.05;54.41
62942;BME280;49042;47.318;19.874;2023-02-15T13:21:06;101931.28;;;8.81;55.50
62942;BME280;49042;47.318;19.874;2023-02-15T13:24:22;101918.16;;;8.93;55.13
62942;BME280;49042;47.318;19.874;2023-02-15T13:27:32;101920.44;;;8.88;55.38
62942;BME280;49042;47.318;19.874;2023-02-15T13:30:43;101919.31;;;8.98;55.27
62942;BME280;49042;47.318;19.874;2023-02-15T13:33:54;101918.31;;;9.25;54.94
62942;BME280;49042;47.318;19.874;2023-02-15T14:13:42;101907.81;;;11.29;48.81
62942;BME280;49042;47.318;19.874;2023-02-15T14:19:40;101892.97;;;17.87;33.63
62942;BME280;49042;47.318;19.874;2023-02-15T14:23:00;101896.22;;;18.54;31.39
62942;BME280;49042;47.318;19.874;2023-02-15T14:26:37;101899.91;;;16.83;33.79
62942;BME280;49042;47.318;19.874;2023-02-15T14:30:02;101896.16;;;17.05;33.57
62942;BME280;49042;47.318;19.874;2023-02-15T14:33:06;101898.22;;;14.69;37.70
62942;BME280;49042;47.318;19.874;2023-02-15T14:36:12;101898.91;;;13.32;40.22
62942;BME280;49042;47.318;19.874;2023-02-15T14:39:44;101896.50;;;12.76;42.14
62942;BME280;49042;47.318;19.874;2023-02-15T14:49:31;101887.75;;;14.70;37.52
62942;BME280;49042;47.318;19.874;2023-02-15T14:56:20;101878.69;;;14.37;38.71
62942;BME280;49042;47.318;19.874;2023-02-15T14:59:23;101887.09;;;13.21;40.40
62942;BME280;49042;47.318;19.874;2023-02-15T15:02:46;101889.47;;;11.46;45.03
62942;BME280;49042;47.318;19.874;2023-02-15T15:05:52;101892.97;;;10.14;48.50
62942;BME280;49042;47.318;19.874;2023-02-15T15:09:00;101887.16;;;10.03;49.64
62942;BME280;49042;47.318;19.874;2023-02-15T15:18:45;101881.16;;;9.58;51.20
62942;BME280;49042;47.318;19.874;2023-02-15T15:21:53;101883.41;;;8.93;53.80
62942;BME280;49042;47.318;19.874;2023-02-15T15:31:56;101881.03;;;7.71;60.06
62942;BME280;49042;47.318;19.874;2023-02-15T15:38:54;101873.44;;;7.61;61.26
62942;BME280;49042;47.318;19.874;2023-02-15T15:45:54;101880.34;;;7.74;60.05
62942;BME280;49042;47.318;19.874;2023-02-15T15:49:07;101876.16;;;7.76;59.75
62942;BME280;49042;47.318;19.874;2023-02-15T15:52:20;101868.34;;;7.49;60.95
62942;BME280;49042;47.318;19.874;2023-02-15T15:55:25;101874.75;;;7.28;62.12
62942;BME280;49042;47.318;19.874;2023-02-15T15:58:28;101871.66;;;7.21;62.44
62942;BME280;49042;47.318;19.874;2023-02-15T16:01:43;101871.44;;;7.17;62.87
62942;BME280;49042;47.318;19.874;2023-02-15T16:04:45;101871.13;;;6.87;64.27
62942;BME280;49042;47.318;19.874;2023-02-15T16:07:50;101870.56;;;6.79;64.73
62942;BME280;49042;47.318;19.874;2023-02-15T16:10:52;101874.19;;;5.95;69.07
62942;BME280;49042;47.318;19.874;2023-02-15T16:13:55;101871.53;;;5.23;74.40
62942;BME280;49042;47.318;19.874;2023-02-15T16:17:00;101870.97;;;5.39;73.70
62942;BME280;49042;47.318;19.874;2023-02-15T16:20:29;101879.69;;;5.64;71.40
62942;BME280;49042;47.318;19.874;2023-02-15T16:27:11;101871.59;;;5.71;70.52
62942;BME280;49042;47.318;19.874;2023-02-15T16:33:35;101871.38;;;5.21;74.61
62942;BME280;49042;47.318;19.874;2023-02-15T16:36:38;101882.50;;;5.20;73.82
62942;BME280;49042;47.318;19.874;2023-02-15T16:39:41;101875.97;;;5.13;74.23
62942;BME280;49042;47.318;19.874;2023-02-15T16:42:45;101872.25;;;5.10;74.07
62942;BME280;49042;47.318;19.874;2023-02-15T16:45:47;101869.25;;;5.16;74.17
62942;BME280;49042;47.318;19.874;2023-02-15T16:48:52;101873.00;;;4.97;76.65
62942;BME280;49042;47.318;19.874;2023-02-15T16:52:05;101877.94;;;4.48;78.28
62942;BME280;49042;47.318;19.874;2023-02-15T16:55:20;101876.72;;;4.78;77.00
62942;BME280;49042;47.318;19.874;2023-02-15T16:58:40;101872.75;;;4.71;78.59
62942;BME280;49042;47.318;19.874;2023-02-15T17:01:48;101873.50;;;4.80;77.23
62942;BME280;49042;47.318;19.874;2023-02-15T17:05:16;101878.13;;;4.62;78.46
62942;BME280;49042;47.318;19.874;2023-02-15T17:11:36;101882.06;;;4.13;81.71
62942;BME280;49042;47.318;19.874;2023-02-15T17:14:39;101882.31;;;4.16;83.03
62942;BME280;49042;47.318;19.874;2023-02-15T17:17:42;101884.47;;;4.22;82.29
62942;BME280;49042;47.318;19.874;2023-02-15T17:20:46;101878.25;;;4.31;81.65
62942;BME280;49042;47.318;19.874;2023-02-15T17:23:51;101881.50;;;3.74;84.22
62942;BME280;49042;47.318;19.874;2023-02-15T17:27:02;101879.09;;;3.34;86.71
62942;BME280;49042;47.318;19.874;2023-02-15T17:30:17;101892.09;;;3.77;84.76
62942;BME280;49042;47.318;19.874;2023-02-15T17:36:58;101890.56;;;3.48;86.70
62942;BME280;49042;47.318;19.874;2023-02-15T17:43:22;101886.84;;;2.72;91.09
62942;BME280;49042;47.318;19.874;2023-02-15T17:46:25;101884.41;;;2.74;91.79
62942;BME280;49042;47.318;19.874;2023-02-15T17:49:34;101877.87;;;2.48;91.81
62942;BME280;49042;47.318;19.874;2023-02-15T17:52:37;101882.28;;;2.49;92.04
62942;BME280;49042;47.318;19.874;2023-02-15T17:55:41;101885.06;;;2.71;89.73
62942;BME280;49042;47.318;19.874;2023-02-15T17:58:44;101886.78;;;2.92;87.93
62942;BME280;49042;47.318;19.874;2023-02-15T18:01:47;101888.94;;;2.87;87.99
62942;BME280;49042;47.318;19.874;2023-02-15T18:05:13;101893.81;;;2.73;88.18
62942;BME280;49042;47.318;19.874;2023-02-15T18:08:36;101892.38;;;2.66;88.23
62942;BME280;49042;47.318;19.874;2023-02-15T18:11:57;101894.94;;;2.56;87.95
62942;BME280;49042;47.318;19.874;2023-02-15T18:15:02;101889.66;;;2.24;89.69
62942;BME280;49042;47.318;19.874;2023-02-15T18:18:08;101886.59;;;2.29;89.55
62942;BME280;49042;47.318;19.874;2023-02-15T18:21:14;101879.81;;;2.40;88.68
62942;BME280;49042;47.318;19.874;2023-02-15T18:24:20;101887.59;;;2.31;88.89
62942;BME280;49042;47.318;19.874;2023-02-15T18:27:23;101882.34;;;2.29;89.26
62942;BME280;49042;47.318;19.874;2023-02-15T18:30:26;101881.59;;;2.11;90.04
62942;BME280;49042;47.318;19.874;2023-02-15T18:33:36;101882.41;;;2.20;89.86
62942;BME280;49042;47.318;19.874;2023-02-15T18:36:43;101878.72;;;2.27;89.62
62942;BME280;49042;47.318;19.874;2023-02-15T18:39:48;101878.84;;;2.29;88.82
62942;BME280;49042;47.318;19.874;2023-02-15T18:42:52;101887.75;;;2.32;89.52
62942;BME280;49042;47.318;19.874;2023-02-15T18:45:56;101892.22;;;2.05;91.08
62942;BME280;49042;47.318;19.874;2023-02-15T18:48:59;101882.56;;;2.02;91.56
62942;BME280;49042;47.318;19.874;2023-02-15T18:52:03;101881.00;;;2.24;90.68
62942;BME280;49042;47.318;19.874;2023-02-15T18:58:21;101878.03;;;2.19;90.52